Coral, Illinois
Current Conditions -  °F | °C
As of 10:35 PM on Wednesday 28 Jan 2015 (Local Time) from KDKB Reporting Station
Overcast Overcast  
Wind Chill: 19°   Ceiling: 8500
Heat Index: 31°   Visibility: 10mi
Dew Point: 26°   Wind: 20mph
Humidity: 80%   Direction: 160°SSE
Pressure: 29.82"   Gusts: 28mph
Location:  42.2385°N, 88.6273°W
Report Text: KDKB 290435Z AUTO 16017G24KT 10SM OVC085 00/M03 A2982 RMK AO2 T10051035
Loading
Personal Weather Stations






























Interactive Weather Map New forecast layout! Learn more

10-Day Weather Forecast

Advertisements
Track Severe Weather on mobile